createdAt,value
2019-02-28T00:01:03.534Z,80.60
2019-02-28T00:03:43.201Z,80.60
2019-02-28T00:06:23.084Z,80.50
2019-02-28T00:09:04.009Z,80.60
2019-02-28T00:11:46.735Z,80.70
2019-02-28T00:14:27.751Z,81.10
2019-02-28T00:17:09.111Z,81.50
2019-02-28T00:19:49.696Z,82.40
2019-02-28T00:22:29.798Z,82.70
2019-02-28T00:25:09.414Z,82.60
2019-02-28T00:27:52.732Z,82.00
2019-02-28T00:30:31.626Z,81.60
2019-02-28T00:33:11.011Z,82.00
2019-02-28T00:35:51.388Z,81.80
2019-02-28T00:38:31.580Z,81.00
2019-02-28T00:41:11.631Z,80.10
2019-02-28T00:43:51.919Z,79.10
2019-02-28T00:46:32.325Z,78.50
2019-02-28T00:49:12.436Z,78.00
2019-02-28T00:51:53.362Z,77.70
2019-02-28T00:54:33.531Z,77.50
2019-02-28T00:57:16.151Z,77.30
2019-02-28T00:59:56.079Z,77.00
2019-02-28T01:02:36.091Z,76.50
2019-02-28T01:05:17.336Z,76.20
2019-02-28T01:07:57.549Z,76.00
2019-02-28T01:10:39.259Z,76.20
2019-02-28T01:13:20.095Z,76.30
2019-02-28T01:16:00.243Z,76.30
2019-02-28T01:18:40.116Z,76.20
2019-02-28T01:21:23.625Z,76.00
2019-02-28T01:24:02.519Z,75.60
2019-02-28T01:26:43.284Z,75.00
2019-02-28T01:29:24.608Z,74.60
2019-02-28T01:32:04.673Z,74.70
2019-02-28T01:34:44.624Z,74.80
2019-02-28T01:37:24.741Z,74.60
2019-02-28T01:39:52.207Z,74.60
2019-02-28T01:42:38.940Z,74.40
2019-02-28T01:45:18.749Z,74.30
2019-02-28T01:47:59.013Z,74.40
2019-02-28T01:50:38.735Z,74.50
2019-02-28T01:53:19.670Z,74.40
2019-02-28T01:56:02.394Z,74.50
2019-02-28T01:58:41.879Z,74.60
2019-02-28T02:01:22.680Z,74.60
2019-02-28T02:04:02.638Z,74.80
2019-02-28T02:09:29.266Z,75.10
2019-02-28T02:12:08.549Z,75.70
2019-02-28T02:14:48.799Z,76.10
2019-02-28T02:17:28.899Z,76.30
2019-02-28T02:20:09.735Z,76.70
2019-02-28T02:22:54.263Z,76.90
2019-02-28T02:25:36.956Z,77.10
2019-02-28T02:28:15.668Z,77.10
2019-02-28T02:30:55.852Z,77.60
2019-02-28T02:33:35.760Z,78.10
2019-02-28T02:36:17.587Z,78.20
2019-02-28T02:38:58.030Z,78.40
2019-02-28T02:41:37.914Z,78.50
2019-02-28T02:44:18.067Z,78.90
2019-02-28T02:46:58.956Z,79.20
2019-02-28T02:49:40.033Z,79.60
2019-02-28T02:52:25.873Z,79.60
2019-02-28T02:55:02.340Z,80.20
2019-02-28T02:57:42.257Z,80.50
2019-02-28T03:00:22.308Z,80.50
2019-02-28T03:03:05.990Z,80.70
2019-02-28T03:05:44.416Z,80.60
2019-02-28T03:08:24.640Z,80.80
2019-02-28T03:11:04.651Z,81.20
2019-02-28T03:13:44.852Z,81.40
2019-02-28T03:16:24.831Z,81.50
2019-02-28T03:19:04.865Z,81.60
2019-02-28T03:21:51.070Z,81.90
2019-02-28T03:24:26.718Z,81.70
2019-02-28T03:27:06.552Z,81.80
2019-02-28T03:29:46.768Z,81.90
2019-02-28T03:32:39.367Z,81.90
2019-02-28T03:35:08.744Z,82.00
2019-02-28T03:37:52.736Z,81.80
2019-02-28T03:40:39.930Z,81.90
2019-02-28T03:43:14.922Z,82.10
2019-02-28T03:45:55.623Z,82.20
2019-02-28T03:48:36.267Z,82.00
2019-02-28T03:51:16.249Z,81.70
2019-02-28T03:54:00.352Z,81.40
2019-02-28T03:56:40.658Z,81.20
2019-02-28T03:59:20.533Z,81.00
2019-02-28T04:02:00.757Z,81.10
2019-02-28T04:04:48.791Z,81.20
2019-02-28T04:07:22.653Z,81.10
2019-02-28T04:10:02.820Z,81.20
2019-02-28T04:12:45.679Z,81.30
2019-02-28T04:15:25.316Z,81.30
2019-02-28T04:18:07.713Z,81.30
2019-02-28T04:20:45.022Z,81.20
2019-02-28T04:23:35.980Z,81.30
2019-02-28T04:26:34.843Z,81.20
2019-02-28T04:29:14.564Z,81.10
2019-02-28T04:31:55.035Z,81.10
2019-02-28T04:34:34.781Z,81.30
2019-02-28T04:37:14.751Z,81.80
2019-02-28T04:39:55.472Z,82.30
2019-02-28T04:42:36.647Z,82.80
2019-02-28T04:45:17.092Z,82.80
2019-02-28T04:47:57.305Z,82.60
2019-02-28T04:50:38.199Z,82.80
2019-02-28T04:53:19.158Z,82.60
2019-02-28T04:56:00.438Z,82.70
2019-02-28T04:58:40.400Z,83.00
2019-02-28T05:01:20.564Z,83.40
2019-02-28T05:04:02.282Z,84.00
2019-02-28T05:06:42.797Z,84.00
2019-02-28T05:09:22.825Z,84.20
2019-02-28T05:12:05.242Z,84.70
2019-02-28T05:17:28.262Z,84.50
2019-02-28T05:20:10.736Z,84.80
2019-02-28T05:22:50.254Z,84.90
2019-02-28T05:25:30.192Z,85.30
2019-02-28T05:28:09.924Z,85.50
2019-02-28T05:30:53.696Z,85.70
2019-02-28T05:33:32.483Z,85.60
2019-02-28T05:36:12.467Z,85.90
2019-02-28T05:38:53.530Z,85.90
2019-02-28T05:41:36.288Z,86.20
2019-02-28T05:44:16.293Z,86.20
2019-02-28T05:46:58.071Z,86.20
2019-02-28T05:49:40.733Z,86.40
2019-02-28T05:52:20.489Z,87.00
2019-02-28T05:55:00.697Z,87.20
2019-02-28T05:57:43.560Z,87.60
2019-02-28T06:00:23.234Z,87.30
2019-02-28T06:03:04.562Z,87.20
2019-02-28T06:05:33.218Z,86.70
2019-02-28T06:08:19.772Z,86.50
2019-02-28T06:11:01.379Z,86.70
2019-02-28T06:13:41.632Z,86.70
2019-02-28T06:16:21.639Z,86.70
2019-02-28T06:19:04.574Z,86.70
2019-02-28T06:21:43.969Z,86.30
2019-02-28T06:24:23.786Z,86.20
2019-02-28T06:27:06.569Z,85.70
2019-02-28T06:29:45.845Z,85.50
2019-02-28T06:32:27.271Z,85.50
2019-02-28T06:35:07.286Z,85.40
2019-02-28T06:37:48.040Z,84.60
2019-02-28T06:40:32.604Z,84.10
2019-02-28T06:43:09.914Z,83.70
2019-02-28T06:48:36.056Z,83.10
2019-02-28T06:51:16.871Z,82.60
2019-02-28T06:53:57.153Z,82.10
2019-02-28T06:56:37.022Z,81.80
2019-02-28T06:59:18.623Z,81.40
2019-02-28T07:01:58.116Z,80.80
2019-02-28T07:04:38.427Z,80.40
2019-02-28T07:07:20.721Z,80.20
2019-02-28T07:10:00.704Z,80.20
2019-02-28T07:12:41.154Z,79.90
2019-02-28T07:15:24.800Z,78.90
2019-02-28T07:21:10.376Z,77.80
2019-02-28T07:23:50.914Z,77.40
2019-02-28T07:26:31.651Z,77.00
2019-02-28T07:29:12.070Z,77.00
2019-02-28T07:31:52.452Z,75.70
2019-02-28T07:34:32.682Z,74.60
2019-02-28T07:37:13.113Z,74.10
2019-02-28T07:39:53.062Z,72.90
2019-02-28T07:42:33.664Z,72.50
2019-02-28T07:45:22.517Z,72.20
2019-02-28T07:48:08.679Z,71.10
2019-02-28T07:50:49.229Z,70.20
2019-02-28T07:53:29.188Z,70.50
2019-02-28T07:56:09.774Z,70.50
2019-02-28T07:58:49.339Z,70.10
2019-02-28T08:01:30.292Z,70.00
2019-02-28T08:04:09.803Z,69.40
2019-02-28T08:06:50.296Z,69.00
2019-02-28T08:09:30.098Z,68.30
2019-02-28T08:12:12.150Z,67.60
2019-02-28T08:14:52.584Z,67.90
2019-02-28T08:17:32.796Z,67.80
2019-02-28T08:20:12.825Z,67.00
2019-02-28T08:25:33.032Z,67.20
2019-02-28T08:28:13.188Z,66.80
2019-02-28T08:30:55.196Z,67.10
2019-02-28T08:33:36.020Z,68.00
2019-02-28T08:36:16.951Z,67.40
2019-02-28T08:38:56.729Z,66.60
2019-02-28T08:41:36.452Z,67.10
2019-02-28T08:44:22.814Z,67.00
2019-02-28T08:47:00.394Z,67.30
2019-02-28T08:49:44.578Z,67.00
2019-02-28T08:52:22.757Z,67.00
2019-02-28T08:55:06.748Z,64.70
2019-02-28T08:57:54.369Z,65.80
2019-02-28T09:00:32.815Z,65.70
2019-02-28T09:03:11.374Z,64.60
2019-02-28T09:05:53.274Z,63.80
2019-02-28T09:08:33.665Z,62.90
2019-02-28T09:11:13.651Z,62.00
2019-02-28T09:13:53.482Z,61.20
2019-02-28T09:16:33.516Z,62.50
2019-02-28T09:19:13.812Z,61.00
2019-02-28T09:21:54.545Z,59.80
2019-02-28T09:24:34.542Z,58.20
2019-02-28T09:27:14.719Z,59.90
2019-02-28T09:29:55.560Z,61.60
2019-02-28T09:32:36.352Z,61.40
2019-02-28T09:35:06.391Z,62.00
2019-02-28T09:41:01.409Z,62.60
2019-02-28T09:43:41.944Z,59.00
2019-02-28T09:46:22.485Z,58.10
2019-02-28T09:49:02.476Z,59.20
2019-02-28T09:51:42.563Z,59.40
2019-02-28T09:54:25.885Z,60.80
2019-02-28T09:57:06.518Z,60.90
2019-02-28T09:59:46.616Z,57.50
2019-02-28T10:02:26.955Z,55.70
2019-02-28T10:05:07.552Z,56.90
2019-02-28T10:07:47.850Z,56.30
2019-02-28T10:13:08.696Z,56.70
2019-02-28T10:15:48.418Z,55.10
2019-02-28T10:18:28.629Z,56.30
2019-02-28T10:21:08.897Z,56.20
2019-02-28T10:23:48.961Z,54.50
2019-02-28T10:29:12.299Z,53.90
2019-02-28T10:31:53.401Z,53.50
2019-02-28T10:34:35.376Z,55.20
2019-02-28T10:39:55.934Z,52.80
2019-02-28T10:42:39.860Z,52.00
2019-02-28T10:45:07.314Z,53.30
2019-02-28T10:47:54.203Z,52.70
2019-02-28T10:50:34.071Z,50.40
2019-02-28T10:55:58.016Z,50.70
2019-02-28T11:01:16.718Z,56.60
2019-02-28T11:03:56.314Z,57.20
2019-02-28T11:06:36.656Z,57.30
2019-02-28T11:09:18.327Z,58.00
2019-02-28T11:14:39.537Z,54.30
2019-02-28T11:17:19.196Z,53.20
2019-02-28T11:19:59.172Z,53.10
2019-02-28T11:22:39.865Z,53.60
2019-02-28T11:25:21.228Z,53.50
2019-02-28T11:28:01.020Z,53.90
2019-02-28T11:30:44.553Z,54.40
2019-02-28T11:33:23.268Z,55.50
2019-02-28T11:36:03.241Z,56.40
2019-02-28T11:38:43.160Z,56.50
2019-02-28T11:41:23.421Z,56.50
2019-02-28T11:44:03.317Z,55.90
2019-02-28T11:46:43.091Z,54.40
2019-02-28T11:49:25.657Z,54.10
2019-02-28T11:52:04.849Z,53.70
2019-02-28T11:54:45.404Z,53.80
2019-02-28T11:57:26.550Z,54.20
2019-02-28T12:00:06.393Z,53.80
2019-02-28T12:02:53.223Z,53.20
2019-02-28T12:05:30.217Z,51.70
2019-02-28T12:08:10.724Z,50.30
2019-02-28T12:10:50.476Z,51.30
2019-02-28T12:13:30.699Z,49.40
2019-02-28T12:16:10.485Z,48.30
2019-02-28T12:21:37.609Z,48.50
2019-02-28T12:24:15.669Z,48.60
2019-02-28T12:26:57.104Z,47.00
2019-02-28T12:29:37.200Z,47.30
2019-02-28T12:32:17.119Z,47.40
2019-02-28T12:34:57.207Z,46.60
2019-02-28T12:37:37.580Z,46.30
2019-02-28T12:40:17.463Z,46.80
2019-02-28T12:42:57.577Z,47.20
2019-02-28T12:45:37.530Z,48.30
2019-02-28T12:48:18.012Z,48.90
2019-02-28T12:50:57.677Z,46.50
2019-02-28T12:53:38.750Z,45.90
2019-02-28T12:56:19.099Z,48.30
2019-02-28T12:58:59.280Z,47.50
2019-02-28T13:01:39.312Z,48.30
2019-02-28T13:04:19.512Z,46.70
2019-02-28T13:06:59.543Z,46.40
2019-02-28T13:09:39.863Z,46.40
2019-02-28T13:12:19.498Z,43.90
2019-02-28T13:14:59.575Z,44.00
2019-02-28T13:17:39.500Z,44.00
2019-02-28T13:20:19.813Z,43.30
2019-02-28T13:23:01.150Z,43.10
2019-02-28T13:28:23.656Z,46.10
2019-02-28T13:33:44.014Z,48.30
2019-02-28T13:36:24.801Z,49.10
2019-02-28T13:39:04.427Z,48.20
2019-02-28T13:41:45.386Z,47.30
2019-02-28T13:44:25.318Z,45.40
2019-02-28T13:47:09.891Z,45.50
2019-02-28T13:49:49.779Z,46.40
2019-02-28T13:52:29.616Z,48.90
2019-02-28T13:55:10.110Z,48.80
2019-02-28T13:57:49.716Z,48.60
2019-02-28T14:00:29.714Z,48.50
2019-02-28T14:03:10.476Z,49.40
2019-02-28T14:05:51.006Z,48.50
2019-02-28T14:08:30.885Z,47.50
2019-02-28T14:11:11.133Z,48.30
2019-02-28T14:13:51.629Z,48.00
2019-02-28T14:16:31.496Z,46.70
2019-02-28T14:19:11.495Z,46.20
2019-02-28T14:21:51.521Z,46.40
2019-02-28T14:24:32.043Z,47.40
2019-02-28T14:27:11.851Z,48.40
2019-02-28T14:32:31.868Z,49.20
2019-02-28T14:35:11.972Z,50.60
2019-02-28T14:37:55.520Z,51.70
2019-02-28T14:40:34.114Z,52.30
2019-02-28T14:43:13.943Z,52.20
2019-02-28T14:45:54.138Z,51.70
2019-02-28T14:48:36.510Z,51.90
2019-02-28T14:51:16.393Z,52.60
2019-02-28T14:53:56.305Z,52.70
2019-02-28T14:56:36.436Z,52.70
2019-02-28T14:59:15.771Z,52.90
2019-02-28T15:01:55.786Z,53.20
2019-02-28T15:04:35.894Z,53.30
2019-02-28T15:07:16.377Z,52.00
2019-02-28T15:10:01.664Z,49.40
2019-02-28T15:13:04.671Z,49.00
2019-02-28T15:15:44.926Z,49.50
2019-02-28T15:18:25.120Z,49.00
2019-02-28T15:21:08.379Z,49.60
2019-02-28T15:23:49.041Z,49.50
2019-02-28T15:26:29.874Z,49.70
2019-02-28T15:31:51.603Z,50.50
2019-02-28T15:34:31.537Z,49.40
2019-02-28T15:37:11.841Z,49.80
2019-02-28T15:39:51.770Z,50.40
2019-02-28T15:42:31.691Z,50.30
2019-02-28T15:45:11.883Z,50.20
2019-02-28T15:47:59.116Z,50.80
2019-02-28T15:50:37.269Z,50.30
2019-02-28T15:53:17.522Z,50.00
2019-02-28T15:55:58.724Z,49.60
2019-02-28T15:58:41.358Z,49.50
2019-02-28T16:01:20.456Z,49.60
2019-02-28T16:04:00.059Z,50.00
2019-02-28T16:06:39.948Z,50.40
2019-02-28T16:09:21.444Z,51.40
2019-02-28T16:12:02.507Z,51.80
2019-02-28T16:14:42.378Z,52.20
2019-02-28T16:17:23.214Z,52.70
2019-02-28T16:20:02.902Z,52.30
2019-02-28T16:22:42.711Z,52.90
2019-02-28T16:25:22.419Z,52.90
2019-02-28T16:28:04.551Z,53.50
2019-02-28T16:30:44.450Z,54.20
2019-02-28T16:33:25.460Z,55.50
2019-02-28T16:36:05.564Z,57.70
2019-02-28T16:38:45.124Z,58.50
2019-02-28T16:41:33.766Z,58.00
2019-02-28T16:44:34.477Z,59.10
2019-02-28T16:47:14.580Z,61.80
2019-02-28T16:49:54.525Z,63.30
2019-02-28T16:52:32.362Z,64.00
2019-02-28T16:55:19.330Z,65.10
2019-02-28T16:57:58.848Z,66.00
2019-02-28T17:00:39.610Z,67.20
2019-02-28T17:03:22.408Z,68.10
2019-02-28T17:06:02.373Z,69.10
2019-02-28T17:08:42.744Z,69.80
2019-02-28T17:11:22.243Z,70.40
2019-02-28T17:14:10.199Z,71.00
2019-02-28T17:17:14.578Z,71.30
2019-02-28T17:19:54.328Z,71.50
2019-02-28T17:22:33.891Z,71.30
2019-02-28T17:25:14.175Z,71.10
2019-02-28T17:31:44.593Z,70.90
2019-02-28T17:34:24.508Z,71.00
2019-02-28T17:37:05.680Z,71.20
2019-02-28T17:39:47.414Z,71.30
2019-02-28T17:42:28.027Z,71.40
2019-02-28T17:45:10.162Z,71.40
2019-02-28T17:47:49.908Z,71.60
2019-02-28T17:50:30.113Z,71.70
2019-02-28T17:53:13.312Z,71.80
2019-02-28T17:55:53.053Z,72.10
2019-02-28T17:58:33.177Z,72.10
2019-02-28T18:01:13.720Z,72.20
2019-02-28T18:03:53.674Z,72.20
2019-02-28T18:06:34.201Z,72.50
2019-02-28T18:09:14.091Z,72.60
2019-02-28T18:11:53.887Z,72.80
2019-02-28T18:14:34.280Z,72.90
2019-02-28T18:17:14.166Z,73.10
2019-02-28T18:19:55.119Z,73.00
2019-02-28T18:22:35.397Z,73.10
2019-02-28T18:25:17.188Z,73.50
2019-02-28T18:27:57.853Z,74.00
2019-02-28T18:30:37.713Z,74.70
2019-02-28T18:33:19.538Z,75.00
2019-02-28T18:36:00.617Z,75.00
2019-02-28T18:38:40.781Z,75.10
2019-02-28T18:41:20.796Z,75.40
2019-02-28T18:44:03.749Z,75.70
2019-02-28T18:46:42.859Z,76.00
2019-02-28T18:49:26.582Z,76.10
2019-02-28T18:52:05.496Z,76.30
2019-02-28T18:54:45.230Z,76.60
2019-02-28T18:57:25.970Z,76.60
2019-02-28T19:00:15.134Z,76.60
2019-02-28T19:03:02.017Z,76.40
2019-02-28T19:05:42.279Z,76.60
2019-02-28T19:08:23.317Z,76.80
2019-02-28T19:11:07.215Z,76.90
2019-02-28T19:13:47.865Z,76.90
2019-02-28T19:16:27.315Z,76.90
2019-02-28T19:19:07.534Z,76.90
2019-02-28T19:21:47.934Z,77.10
2019-02-28T19:24:27.926Z,77.00
2019-02-28T19:27:07.834Z,77.10
2019-02-28T19:29:48.414Z,77.20
2019-02-28T19:32:28.113Z,77.40
2019-02-28T19:35:08.653Z,77.50
2019-02-28T19:37:48.494Z,77.50
2019-02-28T19:40:28.685Z,77.60
2019-02-28T19:43:08.924Z,77.50
2019-02-28T19:45:48.794Z,77.70
2019-02-28T19:48:32.395Z,77.80
2019-02-28T19:51:12.794Z,77.70
2019-02-28T19:53:53.288Z,77.60
2019-02-28T19:56:35.735Z,77.70
2019-02-28T19:59:16.305Z,77.70
2019-02-28T20:01:56.360Z,77.60
2019-02-28T20:04:36.258Z,77.60
2019-02-28T20:07:16.307Z,77.70
2019-02-28T20:09:56.612Z,77.70
2019-02-28T20:12:36.805Z,77.90
2019-02-28T20:15:17.393Z,78.00
2019-02-28T20:17:57.184Z,78.20
2019-02-28T20:20:37.472Z,78.50
2019-02-28T20:23:17.818Z,78.90
2019-02-28T20:25:57.436Z,79.30
2019-02-28T20:28:37.794Z,79.50
2019-02-28T20:31:17.811Z,79.80
2019-02-28T20:33:57.728Z,79.90
2019-02-28T20:36:38.967Z,79.90
2019-02-28T20:39:19.152Z,80.10
2019-02-28T20:41:58.848Z,80.30
2019-02-28T20:44:38.858Z,80.40
2019-02-28T20:47:19.221Z,80.40
2019-02-28T20:49:58.980Z,80.50
2019-02-28T20:52:39.510Z,80.60
2019-02-28T20:55:21.147Z,80.70
2019-02-28T20:58:01.395Z,80.70
2019-02-28T21:00:42.069Z,81.00
2019-02-28T21:03:22.828Z,81.30
2019-02-28T21:06:03.022Z,81.40
2019-02-28T21:08:42.876Z,81.40
2019-02-28T21:11:22.733Z,81.40
2019-02-28T21:14:07.132Z,81.40
2019-02-28T21:16:46.869Z,81.30
2019-02-28T21:19:27.015Z,81.00
2019-02-28T21:22:06.581Z,80.80
2019-02-28T21:24:46.719Z,80.60
2019-02-28T21:27:29.468Z,80.60
2019-02-28T21:30:11.980Z,80.50
2019-02-28T21:32:58.781Z,80.40
2019-02-28T21:35:40.352Z,80.30
2019-02-28T21:38:20.120Z,80.40
2019-02-28T21:41:00.345Z,80.40
2019-02-28T21:43:40.291Z,80.50
2019-02-28T21:46:20.021Z,80.90
2019-02-28T21:49:00.242Z,81.20
2019-02-28T21:51:40.596Z,81.60
2019-02-28T21:54:20.653Z,81.70
2019-02-28T21:57:00.436Z,81.80
2019-02-28T21:59:40.454Z,81.50
2019-02-28T22:02:20.604Z,80.90
2019-02-28T22:05:00.640Z,80.50
2019-02-28T22:07:40.481Z,80.30
2019-02-28T22:10:20.656Z,80.80
2019-02-28T22:13:04.449Z,81.10
2019-02-28T22:15:44.634Z,81.50
2019-02-28T22:18:25.097Z,81.60
2019-02-28T22:21:05.454Z,81.80
2019-02-28T22:23:45.684Z,81.90
2019-02-28T22:26:25.942Z,82.00
2019-02-28T22:29:06.324Z,82.20
2019-02-28T22:35:00.836Z,82.10
2019-02-28T22:37:40.392Z,82.10
2019-02-28T22:40:20.394Z,82.10
2019-02-28T22:43:00.762Z,81.90
2019-02-28T22:45:40.610Z,81.70
2019-02-28T22:48:24.413Z,81.50
2019-02-28T22:51:08.786Z,81.80
2019-02-28T22:53:48.660Z,81.80
2019-02-28T22:56:28.458Z,81.90
2019-02-28T22:59:08.695Z,82.20
2019-02-28T23:04:45.387Z,82.40
2019-02-28T23:07:25.456Z,82.50
2019-02-28T23:10:05.312Z,82.70
2019-02-28T23:12:45.728Z,83.10
2019-02-28T23:15:25.967Z,83.30
2019-02-28T23:18:05.933Z,83.60
2019-02-28T23:20:46.057Z,84.20
2019-02-28T23:23:26.025Z,85.10
2019-02-28T23:26:06.476Z,86.80
2019-02-28T23:28:46.285Z,88.50
2019-02-28T23:31:26.500Z,89.40
2019-02-28T23:34:06.651Z,90.50
2019-02-28T23:36:46.575Z,91.20
2019-02-28T23:39:26.575Z,91.90
2019-02-28T23:42:06.528Z,92.70
2019-02-28T23:44:46.735Z,93.70
2019-02-28T23:47:27.619Z,94.30
2019-02-28T23:50:07.601Z,94.80
2019-02-28T23:52:47.971Z,95.00
2019-02-28T23:55:27.704Z,95.10
2019-02-28T23:58:07.739Z,95.00
